sensor_id;sensor_type;location;lat;lon;timestamp;temperature;humidity
20432;DHT22;10375;49.136;10.366;2024-01-16T00:01:10;-2.00;99.90
20432;DHT22;10375;49.136;10.366;2024-01-16T00:03:38;-2.10;99.90
20432;DHT22;10375;49.136;10.366;2024-01-16T00:06:05;-2.10;99.90
20432;DHT22;10375;49.136;10.366;2024-01-16T00:08:33;-2.10;99.90
20432;DHT22;10375;49.136;10.366;2024-01-16T00:11:04;-2.10;99.90
20432;DHT22;10375;49.136;10.366;2024-01-16T00:13:32;-2.10;99.90
20432;DHT22;10375;49.136;10.366;2024-01-16T00:16:02;-2.10;99.90
20432;DHT22;10375;49.136;10.366;2024-01-16T00:18:30;-2.00;99.90
20432;DHT22;10375;49.136;10.366;2024-01-16T00:21:00;-1.90;99.90
20432;DHT22;10375;49.136;10.366;2024-01-16T00:23:29;-2.00;99.90
20432;DHT22;10375;49.136;10.366;2024-01-16T00:25:58;-2.00;99.90
20432;DHT22;10375;49.136;10.366;2024-01-16T00:28:26;-1.90;99.90
20432;DHT22;10375;49.136;10.366;2024-01-16T00:30:53;-1.80;99.90
20432;DHT22;10375;49.136;10.366;2024-01-16T00:33:20;-1.90;99.90
20432;DHT22;10375;49.136;10.366;2024-01-16T00:35:47;-1.90;99.90
20432;DHT22;10375;49.136;10.366;2024-01-16T00:38:14;-1.90;99.90
20432;DHT22;10375;49.136;10.366;2024-01-16T00:40:41;-1.90;99.90
20432;DHT22;10375;49.136;10.366;2024-01-16T00:43:09;-1.90;99.90
20432;DHT22;10375;49.136;10.366;2024-01-16T00:45:36;-1.90;99.90
20432;DHT22;10375;49.136;10.366;2024-01-16T00:48:03;-1.90;99.90
20432;DHT22;10375;49.136;10.366;2024-01-16T00:50:32;-1.80;99.90
20432;DHT22;10375;49.136;10.366;2024-01-16T00:53:00;-1.80;99.90
20432;DHT22;10375;49.136;10.366;2024-01-16T00:55:27;-1.80;99.90
20432;DHT22;10375;49.136;10.366;2024-01-16T00:57:54;-1.80;99.90
20432;DHT22;10375;49.136;10.366;2024-01-16T01:00:21;-1.80;99.90
20432;DHT22;10375;49.136;10.366;2024-01-16T01:02:48;-1.80;99.90
20432;DHT22;10375;49.136;10.366;2024-01-16T01:05:15;-1.90;99.90
20432;DHT22;10375;49.136;10.366;2024-01-16T01:07:42;-1.80;99.90
20432;DHT22;10375;49.136;10.366;2024-01-16T01:10:10;-1.80;99.90
20432;DHT22;10375;49.136;10.366;2024-01-16T01:12:42;-1.80;99.90
20432;DHT22;10375;49.136;10.366;2024-01-16T01:15:32;-1.80;99.90
20432;DHT22;10375;49.136;10.366;2024-01-16T01:18:35;-1.80;99.90
20432;DHT22;10375;49.136;10.366;2024-01-16T01:21:02;-1.80;99.90
20432;DHT22;10375;49.136;10.366;2024-01-16T01:23:30;-1.90;99.90
20432;DHT22;10375;49.136;10.366;2024-01-16T01:25:57;-1.90;99.90
20432;DHT22;10375;49.136;10.366;2024-01-16T01:28:24;-1.80;99.90
20432;DHT22;10375;49.136;10.366;2024-01-16T01:30:51;-1.90;99.90
20432;DHT22;10375;49.136;10.366;2024-01-16T01:33:19;-1.80;99.90
20432;DHT22;10375;49.136;10.366;2024-01-16T01:35:46;-1.80;99.90
20432;DHT22;10375;49.136;10.366;2024-01-16T01:38:13;-1.80;99.90
20432;DHT22;10375;49.136;10.366;2024-01-16T01:40:41;-1.70;99.90
20432;DHT22;10375;49.136;10.366;2024-01-16T01:43:20;-1.70;99.90
20432;DHT22;10375;49.136;10.366;2024-01-16T01:46:00;-1.80;99.90
20432;DHT22;10375;49.136;10.366;2024-01-16T01:48:29;-1.80;99.90
20432;DHT22;10375;49.136;10.366;2024-01-16T01:50:59;-1.80;99.90
20432;DHT22;10375;49.136;10.366;2024-01-16T01:53:27;-1.80;99.90
20432;DHT22;10375;49.136;10.366;2024-01-16T01:55:55;-1.80;99.90
20432;DHT22;10375;49.136;10.366;2024-01-16T01:58:23;-1.80;99.90
20432;DHT22;10375;49.136;10.366;2024-01-16T02:00:50;-1.80;99.90
20432;DHT22;10375;49.136;10.366;2024-01-16T02:03:18;-1.80;99.90
20432;DHT22;10375;49.136;10.366;2024-01-16T02:05:46;-1.70;99.90
20432;DHT22;10375;49.136;10.366;2024-01-16T02:08:13;-1.80;99.90
20432;DHT22;10375;49.136;10.366;2024-01-16T02:10:43;-1.70;99.90
20432;DHT22;10375;49.136;10.366;2024-01-16T02:13:12;-1.80;99.90
20432;DHT22;10375;49.136;10.366;2024-01-16T02:15:39;-1.70;99.90
20432;DHT22;10375;49.136;10.366;2024-01-16T02:18:08;-1.70;99.90
20432;DHT22;10375;49.136;10.366;2024-01-16T02:20:35;-1.80;99.90
20432;DHT22;10375;49.136;10.366;2024-01-16T02:23:03;-1.80;99.90
20432;DHT22;10375;49.136;10.366;2024-01-16T02:25:31;-1.80;99.90
20432;DHT22;10375;49.136;10.366;2024-01-16T02:27:59;-1.80;99.90
20432;DHT22;10375;49.136;10.366;2024-01-16T02:30:27;-1.80;99.90
20432;DHT22;10375;49.136;10.366;2024-01-16T02:32:54;-1.80;99.90
20432;DHT22;10375;49.136;10.366;2024-01-16T02:35:21;-1.80;99.90
20432;DHT22;10375;49.136;10.366;2024-01-16T02:37:49;-1.80;99.90
20432;DHT22;10375;49.136;10.366;2024-01-16T02:40:16;-1.80;99.90
20432;DHT22;10375;49.136;10.366;2024-01-16T02:42:43;-1.80;99.90
20432;DHT22;10375;49.136;10.366;2024-01-16T02:45:10;-1.90;99.90
20432;DHT22;10375;49.136;10.366;2024-01-16T02:47:37;-1.90;99.90
20432;DHT22;10375;49.136;10.366;2024-01-16T02:50:05;-1.90;99.90
20432;DHT22;10375;49.136;10.366;2024-01-16T02:52:32;-1.90;99.90
20432;DHT22;10375;49.136;10.366;2024-01-16T02:55:00;-2.00;99.90
20432;DHT22;10375;49.136;10.366;2024-01-16T02:57:27;-2.00;99.90
20432;DHT22;10375;49.136;10.366;2024-01-16T02:59:54;-2.00;99.90
20432;DHT22;10375;49.136;10.366;2024-01-16T03:02:21;-2.00;99.90
20432;DHT22;10375;49.136;10.366;2024-01-16T03:04:49;-2.00;99.90
20432;DHT22;10375;49.136;10.366;2024-01-16T03:07:17;-2.00;99.90
20432;DHT22;10375;49.136;10.366;2024-01-16T03:09:44;-2.10;99.90
20432;DHT22;10375;49.136;10.366;2024-01-16T03:12:11;-2.00;99.90
20432;DHT22;10375;49.136;10.366;2024-01-16T03:14:38;-2.10;99.90
20432;DHT22;10375;49.136;10.366;2024-01-16T03:17:06;-2.10;99.90
20432;DHT22;10375;49.136;10.366;2024-01-16T03:19:34;-2.10;99.90
20432;DHT22;10375;49.136;10.366;2024-01-16T03:22:01;-2.10;99.90
20432;DHT22;10375;49.136;10.366;2024-01-16T03:24:28;-2.10;99.90
20432;DHT22;10375;49.136;10.366;2024-01-16T03:26:55;-2.00;99.90
20432;DHT22;10375;49.136;10.366;2024-01-16T03:29:22;-2.00;99.90
20432;DHT22;10375;49.136;10.366;2024-01-16T03:31:49;-2.00;99.90
20432;DHT22;10375;49.136;10.366;2024-01-16T03:34:17;-2.00;99.90
20432;DHT22;10375;49.136;10.366;2024-01-16T03:36:44;-2.00;99.90
20432;DHT22;10375;49.136;10.366;2024-01-16T03:39:11;-1.90;99.90
20432;DHT22;10375;49.136;10.366;2024-01-16T03:41:38;-1.90;99.90
20432;DHT22;10375;49.136;10.366;2024-01-16T03:44:06;-1.90;99.90
20432;DHT22;10375;49.136;10.366;2024-01-16T03:46:33;-1.90;99.90
20432;DHT22;10375;49.136;10.366;2024-01-16T03:49:00;-1.90;99.90
20432;DHT22;10375;49.136;10.366;2024-01-16T03:51:28;-2.00;99.90
20432;DHT22;10375;49.136;10.366;2024-01-16T03:53:55;-1.90;99.90
20432;DHT22;10375;49.136;10.366;2024-01-16T03:56:22;-1.90;99.90
20432;DHT22;10375;49.136;10.366;2024-01-16T03:58:50;-2.00;99.90
20432;DHT22;10375;49.136;10.366;2024-01-16T04:01:17;-1.90;99.90
20432;DHT22;10375;49.136;10.366;2024-01-16T04:03:44;-2.00;99.90
20432;DHT22;10375;49.136;10.366;2024-01-16T04:06:18;-2.00;99.90
20432;DHT22;10375;49.136;10.366;2024-01-16T04:08:46;-2.00;99.90
20432;DHT22;10375;49.136;10.366;2024-01-16T04:11:13;-2.00;99.90
20432;DHT22;10375;49.136;10.366;2024-01-16T04:13:41;-2.00;99.90
20432;DHT22;10375;49.136;10.366;2024-01-16T04:16:09;-2.00;99.90
20432;DHT22;10375;49.136;10.366;2024-01-16T04:18:43;-2.00;99.90
20432;DHT22;10375;49.136;10.366;2024-01-16T04:21:10;-2.00;99.90
20432;DHT22;10375;49.136;10.366;2024-01-16T04:23:37;-2.10;99.90
20432;DHT22;10375;49.136;10.366;2024-01-16T04:26:05;-2.00;99.90
20432;DHT22;10375;49.136;10.366;2024-01-16T04:28:32;-2.10;99.90
20432;DHT22;10375;49.136;10.366;2024-01-16T04:31:00;-2.10;99.90
20432;DHT22;10375;49.136;10.366;2024-01-16T04:33:28;-2.00;99.90
20432;DHT22;10375;49.136;10.366;2024-01-16T04:35:56;-2.10;99.90
20432;DHT22;10375;49.136;10.366;2024-01-16T04:38:23;-2.10;99.90
20432;DHT22;10375;49.136;10.366;2024-01-16T04:40:50;-2.10;99.90
20432;DHT22;10375;49.136;10.366;2024-01-16T04:43:17;-2.10;99.90
20432;DHT22;10375;49.136;10.366;2024-01-16T04:45:44;-2.10;99.90
20432;DHT22;10375;49.136;10.366;2024-01-16T04:48:13;-2.10;99.90
20432;DHT22;10375;49.136;10.366;2024-01-16T04:50:40;-2.10;99.90
20432;DHT22;10375;49.136;10.366;2024-01-16T04:53:09;-2.10;99.90
20432;DHT22;10375;49.136;10.366;2024-01-16T04:55:37;-2.10;99.90
20432;DHT22;10375;49.136;10.366;2024-01-16T04:58:04;-2.10;99.90
20432;DHT22;10375;49.136;10.366;2024-01-16T05:00:32;-2.10;99.90
20432;DHT22;10375;49.136;10.366;2024-01-16T05:03:04;-2.10;99.90
20432;DHT22;10375;49.136;10.366;2024-01-16T05:05:32;-2.10;99.90
20432;DHT22;10375;49.136;10.366;2024-01-16T05:08:01;-2.10;99.90
20432;DHT22;10375;49.136;10.366;2024-01-16T05:10:29;-2.10;99.90
20432;DHT22;10375;49.136;10.366;2024-01-16T05:12:57;-2.00;99.90
20432;DHT22;10375;49.136;10.366;2024-01-16T05:15:24;-2.00;99.90
20432;DHT22;10375;49.136;10.366;2024-01-16T05:17:52;-2.00;99.90
20432;DHT22;10375;49.136;10.366;2024-01-16T05:20:20;-2.10;99.90
20432;DHT22;10375;49.136;10.366;2024-01-16T05:22:48;-2.10;99.90
20432;DHT22;10375;49.136;10.366;2024-01-16T05:25:15;-2.10;99.90
20432;DHT22;10375;49.136;10.366;2024-01-16T05:27:44;-2.10;99.90
20432;DHT22;10375;49.136;10.366;2024-01-16T05:30:12;-2.10;99.90
20432;DHT22;10375;49.136;10.366;2024-01-16T05:32:39;-2.10;99.90
20432;DHT22;10375;49.136;10.366;2024-01-16T05:35:08;-2.10;99.90
20432;DHT22;10375;49.136;10.366;2024-01-16T05:37:36;-2.10;99.90
20432;DHT22;10375;49.136;10.366;2024-01-16T05:40:04;-2.10;99.90
20432;DHT22;10375;49.136;10.366;2024-01-16T05:42:32;-2.10;99.90
20432;DHT22;10375;49.136;10.366;2024-01-16T05:45:00;-2.20;99.90
20432;DHT22;10375;49.136;10.366;2024-01-16T05:47:27;-2.10;99.90
20432;DHT22;10375;49.136;10.366;2024-01-16T05:49:55;-2.00;99.90
20432;DHT22;10375;49.136;10.366;2024-01-16T05:52:23;-2.00;99.90
20432;DHT22;10375;49.136;10.366;2024-01-16T05:54:50;-2.10;99.90
20432;DHT22;10375;49.136;10.366;2024-01-16T05:57:17;-2.00;99.90
20432;DHT22;10375;49.136;10.366;2024-01-16T05:59:45;-2.10;99.90
20432;DHT22;10375;49.136;10.366;2024-01-16T06:02:12;-2.00;99.90
20432;DHT22;10375;49.136;10.366;2024-01-16T06:04:40;-2.10;99.90
20432;DHT22;10375;49.136;10.366;2024-01-16T06:07:07;-2.10;99.90
20432;DHT22;10375;49.136;10.366;2024-01-16T06:09:38;-2.10;99.90
20432;DHT22;10375;49.136;10.366;2024-01-16T06:12:07;-2.10;99.90
20432;DHT22;10375;49.136;10.366;2024-01-16T06:14:34;-2.20;99.90
20432;DHT22;10375;49.136;10.366;2024-01-16T06:17:02;-2.30;99.90
20432;DHT22;10375;49.136;10.366;2024-01-16T06:19:30;-2.30;99.90
20432;DHT22;10375;49.136;10.366;2024-01-16T06:21:58;-2.30;99.90
20432;DHT22;10375;49.136;10.366;2024-01-16T06:24:26;-2.30;99.90
20432;DHT22;10375;49.136;10.366;2024-01-16T06:26:53;-2.40;99.90
20432;DHT22;10375;49.136;10.366;2024-01-16T06:29:20;-2.50;99.90
20432;DHT22;10375;49.136;10.366;2024-01-16T06:32:00;-2.60;99.90
20432;DHT22;10375;49.136;10.366;2024-01-16T06:34:28;-2.60;99.90
20432;DHT22;10375;49.136;10.366;2024-01-16T06:36:56;-2.80;99.90
20432;DHT22;10375;49.136;10.366;2024-01-16T06:39:23;-2.80;99.90
20432;DHT22;10375;49.136;10.366;2024-01-16T06:41:50;-2.80;99.90
20432;DHT22;10375;49.136;10.366;2024-01-16T06:44:18;-2.80;99.90
20432;DHT22;10375;49.136;10.366;2024-01-16T06:46:46;-2.90;99.90
20432;DHT22;10375;49.136;10.366;2024-01-16T06:49:13;-2.90;99.90
20432;DHT22;10375;49.136;10.366;2024-01-16T06:51:41;-3.00;99.90
20432;DHT22;10375;49.136;10.366;2024-01-16T06:54:08;-3.20;99.90
20432;DHT22;10375;49.136;10.366;2024-01-16T06:56:36;-3.30;99.90
20432;DHT22;10375;49.136;10.366;2024-01-16T06:59:03;-3.60;99.90
20432;DHT22;10375;49.136;10.366;2024-01-16T07:01:32;-3.80;99.90
20432;DHT22;10375;49.136;10.366;2024-01-16T07:03:59;-3.90;99.90
20432;DHT22;10375;49.136;10.366;2024-01-16T07:06:26;-4.00;99.90
20432;DHT22;10375;49.136;10.366;2024-01-16T07:08:53;-4.00;99.90
20432;DHT22;10375;49.136;10.366;2024-01-16T07:11:21;-4.00;99.90
20432;DHT22;10375;49.136;10.366;2024-01-16T07:13:50;-3.90;99.90
20432;DHT22;10375;49.136;10.366;2024-01-16T07:16:18;-3.90;99.90
20432;DHT22;10375;49.136;10.366;2024-01-16T07:18:45;-3.80;99.90
20432;DHT22;10375;49.136;10.366;2024-01-16T07:21:20;-3.80;99.90
20432;DHT22;10375;49.136;10.366;2024-01-16T07:23:49;-3.70;99.90
20432;DHT22;10375;49.136;10.366;2024-01-16T07:26:17;-3.60;99.90
20432;DHT22;10375;49.136;10.366;2024-01-16T07:28:45;-3.60;99.90
20432;DHT22;10375;49.136;10.366;2024-01-16T07:31:16;-3.70;99.90
20432;DHT22;10375;49.136;10.366;2024-01-16T07:33:43;-3.60;99.90
20432;DHT22;10375;49.136;10.366;2024-01-16T07:36:11;-3.60;99.90
20432;DHT22;10375;49.136;10.366;2024-01-16T07:38:39;-3.50;99.90
20432;DHT22;10375;49.136;10.366;2024-01-16T07:41:07;-3.40;99.90
20432;DHT22;10375;49.136;10.366;2024-01-16T07:43:35;-3.30;99.90
20432;DHT22;10375;49.136;10.366;2024-01-16T07:46:04;-3.20;99.90
20432;DHT22;10375;49.136;10.366;2024-01-16T07:48:32;-3.00;99.90
20432;DHT22;10375;49.136;10.366;2024-01-16T07:51:00;-2.90;99.90
20432;DHT22;10375;49.136;10.366;2024-01-16T07:53:27;-2.90;99.90
20432;DHT22;10375;49.136;10.366;2024-01-16T07:55:57;-2.80;99.90
20432;DHT22;10375;49.136;10.366;2024-01-16T07:58:26;-2.70;99.90
20432;DHT22;10375;49.136;10.366;2024-01-16T08:00:54;-2.60;99.90
20432;DHT22;10375;49.136;10.366;2024-01-16T08:03:24;-2.50;99.90
20432;DHT22;10375;49.136;10.366;2024-01-16T08:05:52;-2.40;99.90
20432;DHT22;10375;49.136;10.366;2024-01-16T08:08:20;-2.30;99.90
20432;DHT22;10375;49.136;10.366;2024-01-16T08:10:49;-2.30;99.90
20432;DHT22;10375;49.136;10.366;2024-01-16T08:13:21;-2.30;99.90
20432;DHT22;10375;49.136;10.366;2024-01-16T08:15:48;-2.20;99.90
20432;DHT22;10375;49.136;10.366;2024-01-16T08:18:16;-2.20;99.90
20432;DHT22;10375;49.136;10.366;2024-01-16T08:20:45;-2.20;99.90
20432;DHT22;10375;49.136;10.366;2024-01-16T08:23:13;-2.20;99.90
20432;DHT22;10375;49.136;10.366;2024-01-16T08:25:40;-2.20;99.90
20432;DHT22;10375;49.136;10.366;2024-01-16T08:28:14;-2.10;99.90
20432;DHT22;10375;49.136;10.366;2024-01-16T08:30:42;-2.10;99.90
20432;DHT22;10375;49.136;10.366;2024-01-16T08:33:11;-2.00;99.90
20432;DHT22;10375;49.136;10.366;2024-01-16T08:35:40;-1.90;99.90
20432;DHT22;10375;49.136;10.366;2024-01-16T08:38:08;-1.80;99.90
20432;DHT22;10375;49.136;10.366;2024-01-16T08:40:36;-1.70;99.90
20432;DHT22;10375;49.136;10.366;2024-01-16T08:43:04;-1.60;99.90
20432;DHT22;10375;49.136;10.366;2024-01-16T08:45:32;-1.50;99.90
20432;DHT22;10375;49.136;10.366;2024-01-16T08:48:00;-1.40;99.90
20432;DHT22;10375;49.136;10.366;2024-01-16T08:50:29;-1.40;99.90
20432;DHT22;10375;49.136;10.366;2024-01-16T08:52:56;-1.20;99.90
20432;DHT22;10375;49.136;10.366;2024-01-16T08:55:24;-0.90;99.90
20432;DHT22;10375;49.136;10.366;2024-01-16T08:57:51;-0.10;99.90
20432;DHT22;10375;49.136;10.366;2024-01-16T09:00:18;0.80;99.90
20432;DHT22;10375;49.136;10.366;2024-01-16T09:02:46;1.10;99.90
20432;DHT22;10375;49.136;10.366;2024-01-16T09:05:15;1.30;99.90
20432;DHT22;10375;49.136;10.366;2024-01-16T09:07:43;1.20;99.90
20432;DHT22;10375;49.136;10.366;2024-01-16T09:10:13;1.30;99.90
20432;DHT22;10375;49.136;10.366;2024-01-16T09:12:43;1.40;99.90
20432;DHT22;10375;49.136;10.366;2024-01-16T09:15:11;1.50;99.90
20432;DHT22;10375;49.136;10.366;2024-01-16T09:17:39;1.50;99.90
20432;DHT22;10375;49.136;10.366;2024-01-16T09:20:08;1.30;99.90
20432;DHT22;10375;49.136;10.366;2024-01-16T09:22:35;1.30;99.90
20432;DHT22;10375;49.136;10.366;2024-01-16T09:25:03;1.20;99.90
20432;DHT22;10375;49.136;10.366;2024-01-16T09:27:31;1.30;99.90
20432;DHT22;10375;49.136;10.366;2024-01-16T09:29:59;1.30;99.90
20432;DHT22;10375;49.136;10.366;2024-01-16T09:32:27;1.30;99.90
20432;DHT22;10375;49.136;10.366;2024-01-16T09:34:58;1.40;99.90
20432;DHT22;10375;49.136;10.366;2024-01-16T09:37:25;1.40;99.90
20432;DHT22;10375;49.136;10.366;2024-01-16T09:39:53;1.60;99.90
20432;DHT22;10375;49.136;10.366;2024-01-16T09:42:21;1.50;99.90
20432;DHT22;10375;49.136;10.366;2024-01-16T09:44:49;1.60;99.90
20432;DHT22;10375;49.136;10.366;2024-01-16T09:47:17;1.70;99.90
20432;DHT22;10375;49.136;10.366;2024-01-16T09:49:46;1.50;99.90
20432;DHT22;10375;49.136;10.366;2024-01-16T09:52:16;1.30;99.90
20432;DHT22;10375;49.136;10.366;2024-01-16T09:54:43;1.50;99.90
20432;DHT22;10375;49.136;10.366;2024-01-16T09:57:12;1.50;99.90
20432;DHT22;10375;49.136;10.366;2024-01-16T09:59:41;1.60;99.90
20432;DHT22;10375;49.136;10.366;2024-01-16T10:02:12;1.60;99.90
20432;DHT22;10375;49.136;10.366;2024-01-16T10:04:44;1.80;99.90
20432;DHT22;10375;49.136;10.366;2024-01-16T10:07:12;1.90;99.90
20432;DHT22;10375;49.136;10.366;2024-01-16T10:09:41;2.10;99.90
20432;DHT22;10375;49.136;10.366;2024-01-16T10:12:10;2.10;99.90
20432;DHT22;10375;49.136;10.366;2024-01-16T10:14:38;1.90;99.90
20432;DHT22;10375;49.136;10.366;2024-01-16T10:17:06;1.70;99.90
20432;DHT22;10375;49.136;10.366;2024-01-16T10:19:48;1.60;99.90
20432;DHT22;10375;49.136;10.366;2024-01-16T10:22:20;1.80;99.90
20432;DHT22;10375;49.136;10.366;2024-01-16T10:25:12;1.80;99.90
20432;DHT22;10375;49.136;10.366;2024-01-16T10:27:44;1.80;99.90
20432;DHT22;10375;49.136;10.366;2024-01-16T10:30:12;1.90;99.90
20432;DHT22;10375;49.136;10.366;2024-01-16T10:32:41;2.10;99.90
20432;DHT22;10375;49.136;10.366;2024-01-16T10:35:10;2.20;99.90
20432;DHT22;10375;49.136;10.366;2024-01-16T10:37:53;2.30;99.90
20432;DHT22;10375;49.136;10.366;2024-01-16T10:40:24;2.30;99.90
20432;DHT22;10375;49.136;10.366;2024-01-16T10:42:59;2.50;99.90
20432;DHT22;10375;49.136;10.366;2024-01-16T10:45:27;2.50;99.90
20432;DHT22;10375;49.136;10.366;2024-01-16T10:48:04;2.40;99.90
20432;DHT22;10375;49.136;10.366;2024-01-16T10:50:33;2.30;99.90
20432;DHT22;10375;49.136;10.366;2024-01-16T10:53:04;2.30;99.90
20432;DHT22;10375;49.136;10.366;2024-01-16T10:55:49;2.30;99.90
20432;DHT22;10375;49.136;10.366;2024-01-16T10:58:22;2.40;99.90
20432;DHT22;10375;49.136;10.366;2024-01-16T11:00:52;2.40;99.90
20432;DHT22;10375;49.136;10.366;2024-01-16T11:03:29;2.60;99.90
20432;DHT22;10375;49.136;10.366;2024-01-16T11:05:58;2.80;99.90
20432;DHT22;10375;49.136;10.366;2024-01-16T11:08:37;2.90;99.90
20432;DHT22;10375;49.136;10.366;2024-01-16T11:11:06;2.90;99.90
20432;DHT22;10375;49.136;10.366;2024-01-16T11:13:36;2.90;99.90
20432;DHT22;10375;49.136;10.366;2024-01-16T11:16:04;2.80;99.90
20432;DHT22;10375;49.136;10.366;2024-01-16T11:18:33;2.70;99.90
20432;DHT22;10375;49.136;10.366;2024-01-16T11:21:05;2.70;99.90
20432;DHT22;10375;49.136;10.366;2024-01-16T11:23:37;2.90;99.90
20432;DHT22;10375;49.136;10.366;2024-01-16T11:26:29;3.20;99.90
20432;DHT22;10375;49.136;10.366;2024-01-16T11:29:11;3.40;99.90
20432;DHT22;10375;49.136;10.366;2024-01-16T11:31:56;3.20;99.90
20432;DHT22;10375;49.136;10.366;2024-01-16T11:37:27;2.90;99.90
20432;DHT22;10375;49.136;10.366;2024-01-16T11:40:32;2.80;99.90
20432;DHT22;10375;49.136;10.366;2024-01-16T11:46:08;2.70;99.90
20432;DHT22;10375;49.136;10.366;2024-01-16T11:48:36;2.60;99.90
20432;DHT22;10375;49.136;10.366;2024-01-16T11:51:25;2.70;99.90
20432;DHT22;10375;49.136;10.366;2024-01-16T11:53:54;2.80;99.90
20432;DHT22;10375;49.136;10.366;2024-01-16T11:56:50;2.80;99.90
20432;DHT22;10375;49.136;10.366;2024-01-16T12:02:37;3.30;99.90
20432;DHT22;10375;49.136;10.366;2024-01-16T12:05:06;3.30;99.90
20432;DHT22;10375;49.136;10.366;2024-01-16T12:07:53;3.30;99.90
20432;DHT22;10375;49.136;10.366;2024-01-16T12:10:22;3.40;99.90
20432;DHT22;10375;49.136;10.366;2024-01-16T12:12:50;3.50;99.90
20432;DHT22;10375;49.136;10.366;2024-01-16T12:15:21;3.60;99.90
20432;DHT22;10375;49.136;10.366;2024-01-16T12:17:55;3.70;99.90
20432;DHT22;10375;49.136;10.366;2024-01-16T12:20:26;3.60;99.90
20432;DHT22;10375;49.136;10.366;2024-01-16T12:23:05;3.60;99.90
20432;DHT22;10375;49.136;10.366;2024-01-16T12:25:34;3.40;99.90
20432;DHT22;10375;49.136;10.366;2024-01-16T12:28:21;3.30;99.90
20432;DHT22;10375;49.136;10.366;2024-01-16T12:30:59;3.20;99.90
20432;DHT22;10375;49.136;10.366;2024-01-16T12:33:27;3.20;99.90
20432;DHT22;10375;49.136;10.366;2024-01-16T12:36:03;3.10;99.90
20432;DHT22;10375;49.136;10.366;2024-01-16T12:38:32;3.00;99.90
20432;DHT22;10375;49.136;10.366;2024-01-16T12:40:59;2.90;99.90
20432;DHT22;10375;49.136;10.366;2024-01-16T12:43:30;2.80;99.90
20432;DHT22;10375;49.136;10.366;2024-01-16T12:45:57;2.50;99.90
20432;DHT22;10375;49.136;10.366;2024-01-16T12:48:25;2.40;99.90
20432;DHT22;10375;49.136;10.366;2024-01-16T12:51:00;2.40;99.90
20432;DHT22;10375;49.136;10.366;2024-01-16T12:53:31;2.30;99.90
20432;DHT22;10375;49.136;10.366;2024-01-16T12:55:59;2.30;99.90
20432;DHT22;10375;49.136;10.366;2024-01-16T12:58:34;2.30;99.90
20432;DHT22;10375;49.136;10.366;2024-01-16T13:01:41;2.30;99.90
20432;DHT22;10375;49.136;10.366;2024-01-16T13:04:09;2.20;99.90
20432;DHT22;10375;49.136;10.366;2024-01-16T13:06:37;2.20;99.90
20432;DHT22;10375;49.136;10.366;2024-01-16T13:09:07;2.20;99.90
20432;DHT22;10375;49.136;10.366;2024-01-16T13:11:51;2.10;99.90
20432;DHT22;10375;49.136;10.366;2024-01-16T13:14:19;2.20;99.90
20432;DHT22;10375;49.136;10.366;2024-01-16T13:16:51;2.30;99.90
20432;DHT22;10375;49.136;10.366;2024-01-16T13:19:19;2.40;99.90
20432;DHT22;10375;49.136;10.366;2024-01-16T13:21:48;2.60;99.90
20432;DHT22;10375;49.136;10.366;2024-01-16T13:24:15;2.70;99.90
20432;DHT22;10375;49.136;10.366;2024-01-16T13:26:45;2.70;99.90
20432;DHT22;10375;49.136;10.366;2024-01-16T13:29:13;2.70;99.90
20432;DHT22;10375;49.136;10.366;2024-01-16T13:31:40;2.80;99.90
20432;DHT22;10375;49.136;10.366;2024-01-16T13:34:08;2.70;99.90
20432;DHT22;10375;49.136;10.366;2024-01-16T13:36:35;2.70;99.90
20432;DHT22;10375;49.136;10.366;2024-01-16T13:39:06;2.60;99.90
20432;DHT22;10375;49.136;10.366;2024-01-16T13:41:40;2.70;99.90
20432;DHT22;10375;49.136;10.366;2024-01-16T13:44:08;2.60;99.90
20432;DHT22;10375;49.136;10.366;2024-01-16T13:46:35;2.60;99.90
20432;DHT22;10375;49.136;10.366;2024-01-16T13:49:22;2.60;99.90
20432;DHT22;10375;49.136;10.366;2024-01-16T13:51:50;2.50;99.90
20432;DHT22;10375;49.136;10.366;2024-01-16T13:54:18;2.50;99.90
20432;DHT22;10375;49.136;10.366;2024-01-16T13:56:45;2.50;99.90
20432;DHT22;10375;49.136;10.366;2024-01-16T13:59:31;2.50;99.90
20432;DHT22;10375;49.136;10.366;2024-01-16T14:01:59;2.50;99.90
20432;DHT22;10375;49.136;10.366;2024-01-16T14:04:26;2.50;99.90
20432;DHT22;10375;49.136;10.366;2024-01-16T14:06:53;2.50;99.90
20432;DHT22;10375;49.136;10.366;2024-01-16T14:09:38;2.50;99.90
20432;DHT22;10375;49.136;10.366;2024-01-16T14:12:09;2.60;99.90
20432;DHT22;10375;49.136;10.366;2024-01-16T14:14:36;2.50;99.90
20432;DHT22;10375;49.136;10.366;2024-01-16T14:17:08;2.40;99.90
20432;DHT22;10375;49.136;10.366;2024-01-16T14:19:35;2.30;99.90
20432;DHT22;10375;49.136;10.366;2024-01-16T14:22:03;2.30;99.90
20432;DHT22;10375;49.136;10.366;2024-01-16T14:24:31;2.20;99.90
20432;DHT22;10375;49.136;10.366;2024-01-16T14:26:58;2.10;99.90
20432;DHT22;10375;49.136;10.366;2024-01-16T14:29:25;2.00;99.90
20432;DHT22;10375;49.136;10.366;2024-01-16T14:31:56;1.90;99.90
20432;DHT22;10375;49.136;10.366;2024-01-16T14:34:25;1.80;99.90
20432;DHT22;10375;49.136;10.366;2024-01-16T14:36:53;1.70;99.90
20432;DHT22;10375;49.136;10.366;2024-01-16T14:39:21;1.60;99.90
20432;DHT22;10375;49.136;10.366;2024-01-16T14:41:58;1.50;99.90
20432;DHT22;10375;49.136;10.366;2024-01-16T14:44:25;1.40;99.90
20432;DHT22;10375;49.136;10.366;2024-01-16T14:46:52;1.30;99.90
20432;DHT22;10375;49.136;10.366;2024-01-16T14:49:21;1.20;99.90
20432;DHT22;10375;49.136;10.366;2024-01-16T14:51:48;1.10;99.90
20432;DHT22;10375;49.136;10.366;2024-01-16T14:54:18;1.00;99.90
20432;DHT22;10375;49.136;10.366;2024-01-16T14:56:45;0.90;99.90
20432;DHT22;10375;49.136;10.366;2024-01-16T14:59:12;0.80;99.90
20432;DHT22;10375;49.136;10.366;2024-01-16T15:01:43;0.70;99.90
20432;DHT22;10375;49.136;10.366;2024-01-16T15:04:11;0.50;99.90
20432;DHT22;10375;49.136;10.366;2024-01-16T15:06:39;0.30;99.90
20432;DHT22;10375;49.136;10.366;2024-01-16T15:09:06;0.20;99.90
20432;DHT22;10375;49.136;10.366;2024-01-16T15:11:37;0.10;99.90
20432;DHT22;10375;49.136;10.366;2024-01-16T15:14:05;0.00;99.90
20432;DHT22;10375;49.136;10.366;2024-01-16T15:16:32;-0.10;99.90
20432;DHT22;10375;49.136;10.366;2024-01-16T15:18:59;-0.20;99.90
20432;DHT22;10375;49.136;10.366;2024-01-16T15:21:27;-0.30;99.90
20432;DHT22;10375;49.136;10.366;2024-01-16T15:23:54;-0.30;99.90
20432;DHT22;10375;49.136;10.366;2024-01-16T15:26:21;-0.40;99.90
20432;DHT22;10375;49.136;10.366;2024-01-16T15:28:49;-0.40;99.90
20432;DHT22;10375;49.136;10.366;2024-01-16T15:31:17;-0.50;99.90
20432;DHT22;10375;49.136;10.366;2024-01-16T15:33:45;-0.60;99.90
20432;DHT22;10375;49.136;10.366;2024-01-16T15:36:13;-0.60;99.90
20432;DHT22;10375;49.136;10.366;2024-01-16T15:38:40;-0.70;99.90
20432;DHT22;10375;49.136;10.366;2024-01-16T15:41:08;-0.80;99.90
20432;DHT22;10375;49.136;10.366;2024-01-16T15:43:35;-1.00;99.90
20432;DHT22;10375;49.136;10.366;2024-01-16T15:46:02;-1.10;99.90